sensor_id;sensor_type;location;lat;lon;timestamp;P1;durP1;ratioP1;P2;durP2;ratioP2
57309;SDS011;43153;50.984;18.204;2023-02-28T00:02:25;15.10;;;7.20;;
57309;SDS011;43153;50.984;18.204;2023-02-28T00:05:02;18.30;;;7.40;;
57309;SDS011;43153;50.984;18.204;2023-02-28T00:07:34;18.10;;;8.10;;
57309;SDS011;43153;50.984;18.204;2023-02-28T00:10:03;18.90;;;7.80;;
57309;SDS011;43153;50.984;18.204;2023-02-28T00:12:50;18.00;;;7.10;;
57309;SDS011;43153;50.984;18.204;2023-02-28T00:15:23;14.90;;;6.40;;
57309;SDS011;43153;50.984;18.204;2023-02-28T00:18:02;17.30;;;6.80;;
57309;SDS011;43153;50.984;18.204;2023-02-28T00:20:39;14.90;;;5.80;;
57309;SDS011;43153;50.984;18.204;2023-02-28T00:23:10;16.50;;;6.10;;
57309;SDS011;43153;50.984;18.204;2023-02-28T00:25:45;18.10;;;6.90;;
57309;SDS011;43153;50.984;18.204;2023-02-28T00:28:12;13.80;;;6.90;;
57309;SDS011;43153;50.984;18.204;2023-02-28T00:30:55;15.20;;;7.50;;
57309;SDS011;43153;50.984;18.204;2023-02-28T00:33:23;16.30;;;7.40;;
57309;SDS011;43153;50.984;18.204;2023-02-28T00:36:05;16.40;;;6.50;;
57309;SDS011;43153;50.984;18.204;2023-02-28T00:38:47;15.10;;;5.90;;
57309;SDS011;43153;50.984;18.204;2023-02-28T00:41:13;17.20;;;6.40;;
57309;SDS011;43153;50.984;18.204;2023-02-28T00:43:45;12.40;;;4.90;;
57309;SDS011;43153;50.984;18.204;2023-02-28T00:46:18;14.40;;;6.40;;
57309;SDS011;43153;50.984;18.204;2023-02-28T00:48:50;12.50;;;5.60;;
57309;SDS011;43153;50.984;18.204;2023-02-28T00:51:22;14.30;;;6.40;;
57309;SDS011;43153;50.984;18.204;2023-02-28T00:53:48;15.50;;;7.80;;
57309;SDS011;43153;50.984;18.204;2023-02-28T00:56:14;13.80;;;6.60;;
57309;SDS011;43153;50.984;18.204;2023-02-28T00:58:45;18.30;;;7.40;;
57309;SDS011;43153;50.984;18.204;2023-02-28T01:01:18;15.70;;;7.30;;
57309;SDS011;43153;50.984;18.204;2023-02-28T01:03:44;19.00;;;8.80;;
57309;SDS011;43153;50.984;18.204;2023-02-28T01:06:11;17.30;;;8.20;;
57309;SDS011;43153;50.984;18.204;2023-02-28T01:08:38;11.50;;;5.50;;
57309;SDS011;43153;50.984;18.204;2023-02-28T01:11:12;9.90;;;3.10;;
57309;SDS011;43153;50.984;18.204;2023-02-28T01:13:54;9.00;;;3.40;;
57309;SDS011;43153;50.984;18.204;2023-02-28T01:16:25;9.80;;;4.20;;
57309;SDS011;43153;50.984;18.204;2023-02-28T01:19:02;11.90;;;5.50;;
57309;SDS011;43153;50.984;18.204;2023-02-28T01:21:31;11.50;;;5.00;;
57309;SDS011;43153;50.984;18.204;2023-02-28T01:24:02;12.30;;;5.60;;
57309;SDS011;43153;50.984;18.204;2023-02-28T01:26:29;13.50;;;5.80;;
57309;SDS011;43153;50.984;18.204;2023-02-28T01:29:00;12.80;;;5.60;;
57309;SDS011;43153;50.984;18.204;2023-02-28T01:31:32;11.50;;;5.90;;
57309;SDS011;43153;50.984;18.204;2023-02-28T01:34:04;13.30;;;5.40;;
57309;SDS011;43153;50.984;18.204;2023-02-28T01:36:30;15.60;;;7.00;;
57309;SDS011;43153;50.984;18.204;2023-02-28T01:39:02;14.20;;;5.50;;
57309;SDS011;43153;50.984;18.204;2023-02-28T01:41:31;14.20;;;6.20;;
57309;SDS011;43153;50.984;18.204;2023-02-28T01:44:03;14.30;;;7.00;;
57309;SDS011;43153;50.984;18.204;2023-02-28T01:46:35;16.20;;;6.70;;
57309;SDS011;43153;50.984;18.204;2023-02-28T01:49:09;18.60;;;6.80;;
57309;SDS011;43153;50.984;18.204;2023-02-28T01:51:41;13.90;;;6.10;;
57309;SDS011;43153;50.984;18.204;2023-02-28T01:54:13;17.80;;;8.20;;
57309;SDS011;43153;50.984;18.204;2023-02-28T01:57:04;24.30;;;9.30;;
57309;SDS011;43153;50.984;18.204;2023-02-28T01:59:35;22.30;;;11.10;;
57309;SDS011;43153;50.984;18.204;2023-02-28T02:02:06;18.00;;;9.10;;
57309;SDS011;43153;50.984;18.204;2023-02-28T02:04:34;18.30;;;7.80;;
57309;SDS011;43153;50.984;18.204;2023-02-28T02:07:10;16.40;;;7.90;;
57309;SDS011;43153;50.984;18.204;2023-02-28T02:09:39;22.20;;;9.20;;
57309;SDS011;43153;50.984;18.204;2023-02-28T02:12:17;19.80;;;9.30;;
57309;SDS011;43153;50.984;18.204;2023-02-28T02:15:03;19.80;;;9.30;;
57309;SDS011;43153;50.984;18.204;2023-02-28T02:18:06;21.30;;;9.00;;
57309;SDS011;43153;50.984;18.204;2023-02-28T03:03:25;23.10;;;9.90;;
57309;SDS011;43153;50.984;18.204;2023-02-28T03:06:01;21.00;;;9.90;;
57309;SDS011;43153;50.984;18.204;2023-02-28T03:08:29;20.40;;;9.50;;
57309;SDS011;43153;50.984;18.204;2023-02-28T03:11:04;24.60;;;11.20;;
57309;SDS011;43153;50.984;18.204;2023-02-28T03:22:11;25.10;;;11.30;;
57309;SDS011;43153;50.984;18.204;2023-02-28T03:25:13;27.60;;;12.40;;
57309;SDS011;43153;50.984;18.204;2023-02-28T03:28:03;26.30;;;11.40;;
57309;SDS011;43153;50.984;18.204;2023-02-28T03:31:09;26.90;;;11.50;;
57309;SDS011;43153;50.984;18.204;2023-02-28T03:33:45;22.20;;;10.10;;
57309;SDS011;43153;50.984;18.204;2023-02-28T03:36:23;21.80;;;10.00;;
57309;SDS011;43153;50.984;18.204;2023-02-28T03:38:54;21.10;;;9.70;;
57309;SDS011;43153;50.984;18.204;2023-02-28T03:44:15;26.60;;;12.70;;
57309;SDS011;43153;50.984;18.204;2023-02-28T03:46:55;25.80;;;11.50;;
57309;SDS011;43153;50.984;18.204;2023-02-28T03:49:27;33.20;;;11.90;;
57309;SDS011;43153;50.984;18.204;2023-02-28T03:51:57;31.30;;;12.70;;
57309;SDS011;43153;50.984;18.204;2023-02-28T03:54:30;28.60;;;12.10;;
57309;SDS011;43153;50.984;18.204;2023-02-28T03:59:44;27.10;;;12.30;;
57309;SDS011;43153;50.984;18.204;2023-02-28T04:02:14;29.90;;;13.30;;
57309;SDS011;43153;50.984;18.204;2023-02-28T04:04:41;28.50;;;12.50;;
57309;SDS011;43153;50.984;18.204;2023-02-28T04:07:14;28.40;;;11.90;;
57309;SDS011;43153;50.984;18.204;2023-02-28T04:09:42;36.40;;;13.00;;
57309;SDS011;43153;50.984;18.204;2023-02-28T04:12:08;33.00;;;12.40;;
57309;SDS011;43153;50.984;18.204;2023-02-28T04:14:35;29.80;;;12.10;;
57309;SDS011;43153;50.984;18.204;2023-02-28T04:17:01;32.90;;;14.60;;
57309;SDS011;43153;50.984;18.204;2023-02-28T04:19:33;58.50;;;20.70;;
57309;SDS011;43153;50.984;18.204;2023-02-28T04:22:06;45.80;;;16.20;;
57309;SDS011;43153;50.984;18.204;2023-02-28T04:24:43;36.80;;;15.00;;
57309;SDS011;43153;50.984;18.204;2023-02-28T04:27:10;30.40;;;12.30;;
57309;SDS011;43153;50.984;18.204;2023-02-28T04:29:40;33.60;;;13.20;;
57309;SDS011;43153;50.984;18.204;2023-02-28T04:32:09;34.90;;;14.00;;
57309;SDS011;43153;50.984;18.204;2023-02-28T04:34:37;35.10;;;14.90;;
57309;SDS011;43153;50.984;18.204;2023-02-28T04:37:04;28.10;;;13.30;;
57309;SDS011;43153;50.984;18.204;2023-02-28T04:39:34;30.60;;;12.40;;
57309;SDS011;43153;50.984;18.204;2023-02-28T04:42:08;31.60;;;12.60;;
57309;SDS011;43153;50.984;18.204;2023-02-28T04:44:37;32.60;;;13.70;;
57309;SDS011;43153;50.984;18.204;2023-02-28T04:47:05;32.40;;;15.10;;
57309;SDS011;43153;50.984;18.204;2023-02-28T04:49:32;36.50;;;14.40;;
57309;SDS011;43153;50.984;18.204;2023-02-28T04:51:59;40.20;;;16.50;;
57309;SDS011;43153;50.984;18.204;2023-02-28T04:54:30;37.50;;;14.80;;
57309;SDS011;43153;50.984;18.204;2023-02-28T04:56:59;29.90;;;13.40;;
57309;SDS011;43153;50.984;18.204;2023-02-28T04:59:37;26.30;;;12.40;;
57309;SDS011;43153;50.984;18.204;2023-02-28T05:02:05;33.10;;;14.10;;
57309;SDS011;43153;50.984;18.204;2023-02-28T05:04:35;30.80;;;15.20;;
57309;SDS011;43153;50.984;18.204;2023-02-28T05:07:09;32.30;;;13.70;;
57309;SDS011;43153;50.984;18.204;2023-02-28T05:09:35;34.60;;;15.50;;
57309;SDS011;43153;50.984;18.204;2023-02-28T05:12:04;43.20;;;17.00;;
57309;SDS011;43153;50.984;18.204;2023-02-28T05:14:35;36.00;;;15.20;;
57309;SDS011;43153;50.984;18.204;2023-02-28T05:17:01;28.20;;;13.50;;
57309;SDS011;43153;50.984;18.204;2023-02-28T05:19:28;36.00;;;13.60;;
57309;SDS011;43153;50.984;18.204;2023-02-28T05:21:57;59.00;;;25.90;;
57309;SDS011;43153;50.984;18.204;2023-02-28T05:24:24;68.90;;;30.00;;
57309;SDS011;43153;50.984;18.204;2023-02-28T05:26:54;71.10;;;31.50;;
57309;SDS011;43153;50.984;18.204;2023-02-28T05:29:23;70.10;;;29.70;;
57309;SDS011;43153;50.984;18.204;2023-02-28T05:31:49;47.60;;;21.20;;
57309;SDS011;43153;50.984;18.204;2023-02-28T05:34:16;48.20;;;20.60;;
57309;SDS011;43153;50.984;18.204;2023-02-28T05:36:44;49.60;;;22.90;;
57309;SDS011;43153;50.984;18.204;2023-02-28T05:39:14;81.90;;;30.50;;
57309;SDS011;43153;50.984;18.204;2023-02-28T05:41:47;75.40;;;29.50;;
57309;SDS011;43153;50.984;18.204;2023-02-28T05:44:16;72.40;;;28.00;;
57309;SDS011;43153;50.984;18.204;2023-02-28T05:46:43;95.60;;;32.10;;
57309;SDS011;43153;50.984;18.204;2023-02-28T05:49:08;87.20;;;31.20;;
57309;SDS011;43153;50.984;18.204;2023-02-28T05:51:39;96.20;;;33.80;;
57309;SDS011;43153;50.984;18.204;2023-02-28T05:54:06;69.50;;;28.50;;
57309;SDS011;43153;50.984;18.204;2023-02-28T05:56:41;65.00;;;25.90;;
57309;SDS011;43153;50.984;18.204;2023-02-28T05:59:12;76.20;;;28.70;;
57309;SDS011;43153;50.984;18.204;2023-02-28T06:01:41;68.40;;;27.40;;
57309;SDS011;43153;50.984;18.204;2023-02-28T06:04:18;50.70;;;22.00;;
57309;SDS011;43153;50.984;18.204;2023-02-28T06:06:48;50.20;;;20.90;;
57309;SDS011;43153;50.984;18.204;2023-02-28T06:09:17;48.60;;;20.60;;
57309;SDS011;43153;50.984;18.204;2023-02-28T06:11:44;50.50;;;20.70;;
57309;SDS011;43153;50.984;18.204;2023-02-28T06:14:14;40.80;;;18.70;;
57309;SDS011;43153;50.984;18.204;2023-02-28T06:16:42;49.20;;;22.20;;
57309;SDS011;43153;50.984;18.204;2023-02-28T06:19:10;70.40;;;25.10;;
57309;SDS011;43153;50.984;18.204;2023-02-28T06:21:38;73.10;;;26.40;;
57309;SDS011;43153;50.984;18.204;2023-02-28T06:24:08;84.60;;;29.30;;
57309;SDS011;43153;50.984;18.204;2023-02-28T06:26:36;75.60;;;27.50;;
57309;SDS011;43153;50.984;18.204;2023-02-28T06:29:03;79.70;;;30.10;;
57309;SDS011;43153;50.984;18.204;2023-02-28T06:31:31;74.70;;;25.80;;
57309;SDS011;43153;50.984;18.204;2023-02-28T06:34:00;47.00;;;19.30;;
57309;SDS011;43153;50.984;18.204;2023-02-28T06:36:26;40.00;;;19.20;;
57309;SDS011;43153;50.984;18.204;2023-02-28T06:38:55;40.10;;;18.20;;
57309;SDS011;43153;50.984;18.204;2023-02-28T06:41:23;40.60;;;16.50;;
57309;SDS011;43153;50.984;18.204;2023-02-28T06:43:52;37.50;;;18.30;;
57309;SDS011;43153;50.984;18.204;2023-02-28T06:46:36;48.90;;;21.10;;
57309;SDS011;43153;50.984;18.204;2023-02-28T06:49:07;61.20;;;22.80;;
57309;SDS011;43153;50.984;18.204;2023-02-28T06:51:44;64.30;;;25.50;;
57309;SDS011;43153;50.984;18.204;2023-02-28T06:54:21;49.70;;;22.00;;
57309;SDS011;43153;50.984;18.204;2023-02-28T06:56:53;47.30;;;20.40;;
57309;SDS011;43153;50.984;18.204;2023-02-28T06:59:23;42.20;;;18.20;;
57309;SDS011;43153;50.984;18.204;2023-02-28T07:01:57;44.40;;;22.40;;
57309;SDS011;43153;50.984;18.204;2023-02-28T07:04:24;32.90;;;16.70;;
57309;SDS011;43153;50.984;18.204;2023-02-28T07:06:54;34.70;;;16.20;;
57309;SDS011;43153;50.984;18.204;2023-02-28T07:09:28;44.70;;;17.80;;
57309;SDS011;43153;50.984;18.204;2023-02-28T07:11:56;32.60;;;15.60;;
57309;SDS011;43153;50.984;18.204;2023-02-28T07:14:22;25.60;;;12.40;;
57309;SDS011;43153;50.984;18.204;2023-02-28T07:16:51;27.80;;;13.60;;
57309;SDS011;43153;50.984;18.204;2023-02-28T07:19:17;24.60;;;12.30;;
57309;SDS011;43153;50.984;18.204;2023-02-28T07:21:46;24.80;;;11.90;;
57309;SDS011;43153;50.984;18.204;2023-02-28T07:24:26;24.10;;;12.60;;
57309;SDS011;43153;50.984;18.204;2023-02-28T07:26:57;25.00;;;11.40;;
57309;SDS011;43153;50.984;18.204;2023-02-28T07:29:24;23.80;;;11.90;;
57309;SDS011;43153;50.984;18.204;2023-02-28T07:31:54;24.00;;;13.00;;
57309;SDS011;43153;50.984;18.204;2023-02-28T07:34:21;26.10;;;12.50;;
57309;SDS011;43153;50.984;18.204;2023-02-28T07:36:48;26.10;;;12.50;;
57309;SDS011;43153;50.984;18.204;2023-02-28T07:39:19;21.40;;;11.50;;
57309;SDS011;43153;50.984;18.204;2023-02-28T07:41:47;22.10;;;12.00;;
57309;SDS011;43153;50.984;18.204;2023-02-28T07:44:14;23.90;;;11.40;;
57309;SDS011;43153;50.984;18.204;2023-02-28T07:46:40;20.70;;;9.80;;
57309;SDS011;43153;50.984;18.204;2023-02-28T07:49:13;26.20;;;11.60;;
57309;SDS011;43153;50.984;18.204;2023-02-28T07:51:40;19.90;;;9.80;;
57309;SDS011;43153;50.984;18.204;2023-02-28T07:54:09;25.50;;;13.10;;
57309;SDS011;43153;50.984;18.204;2023-02-28T07:56:36;22.40;;;11.00;;
57309;SDS011;43153;50.984;18.204;2023-02-28T07:59:06;14.50;;;6.70;;
57309;SDS011;43153;50.984;18.204;2023-02-28T08:01:35;19.50;;;8.70;;
57309;SDS011;43153;50.984;18.204;2023-02-28T08:04:01;15.70;;;7.20;;
57309;SDS011;43153;50.984;18.204;2023-02-28T08:06:34;21.90;;;10.30;;
57309;SDS011;43153;50.984;18.204;2023-02-28T08:09:02;22.90;;;12.00;;
57309;SDS011;43153;50.984;18.204;2023-02-28T08:11:32;21.30;;;10.70;;
57309;SDS011;43153;50.984;18.204;2023-02-28T08:14:01;19.10;;;10.00;;
57309;SDS011;43153;50.984;18.204;2023-02-28T08:16:27;20.30;;;9.90;;
57309;SDS011;43153;50.984;18.204;2023-02-28T08:18:53;21.10;;;9.00;;
57309;SDS011;43153;50.984;18.204;2023-02-28T08:21:20;21.20;;;10.20;;
57309;SDS011;43153;50.984;18.204;2023-02-28T08:23:51;26.20;;;12.70;;
57309;SDS011;43153;50.984;18.204;2023-02-28T08:26:20;26.70;;;13.20;;
57309;SDS011;43153;50.984;18.204;2023-02-28T08:28:47;24.60;;;12.60;;
57309;SDS011;43153;50.984;18.204;2023-02-28T08:31:20;20.60;;;9.80;;
57309;SDS011;43153;50.984;18.204;2023-02-28T08:33:49;23.80;;;11.00;;
57309;SDS011;43153;50.984;18.204;2023-02-28T08:36:19;17.10;;;8.90;;
57309;SDS011;43153;50.984;18.204;2023-02-28T08:38:49;17.30;;;8.00;;
57309;SDS011;43153;50.984;18.204;2023-02-28T08:41:20;15.20;;;7.50;;
57309;SDS011;43153;50.984;18.204;2023-02-28T08:43:52;15.10;;;7.10;;
57309;SDS011;43153;50.984;18.204;2023-02-28T08:46:23;17.20;;;7.50;;
57309;SDS011;43153;50.984;18.204;2023-02-28T08:48:54;11.60;;;4.90;;
57309;SDS011;43153;50.984;18.204;2023-02-28T08:51:21;14.00;;;6.00;;
57309;SDS011;43153;50.984;18.204;2023-02-28T09:32:28;11.00;;;5.20;;
57309;SDS011;43153;50.984;18.204;2023-02-28T09:35:02;13.90;;;5.40;;
57309;SDS011;43153;50.984;18.204;2023-02-28T09:37:39;11.70;;;5.30;;
57309;SDS011;43153;50.984;18.204;2023-02-28T09:40:11;10.40;;;4.90;;
57309;SDS011;43153;50.984;18.204;2023-02-28T09:42:44;11.60;;;5.80;;
57309;SDS011;43153;50.984;18.204;2023-02-28T09:48:18;10.50;;;4.50;;
57309;SDS011;43153;50.984;18.204;2023-02-28T09:50:50;12.60;;;4.60;;
57309;SDS011;43153;50.984;18.204;2023-02-28T09:53:34;11.50;;;4.90;;
57309;SDS011;43153;50.984;18.204;2023-02-28T09:56:07;11.10;;;4.90;;
57309;SDS011;43153;50.984;18.204;2023-02-28T10:06:54;15.00;;;7.10;;
57309;SDS011;43153;50.984;18.204;2023-02-28T10:09:30;12.50;;;5.90;;
57309;SDS011;43153;50.984;18.204;2023-02-28T10:11:59;9.90;;;4.80;;
57309;SDS011;43153;50.984;18.204;2023-02-28T10:14:38;11.10;;;5.70;;
57309;SDS011;43153;50.984;18.204;2023-02-28T10:20:14;15.20;;;6.50;;
57309;SDS011;43153;50.984;18.204;2023-02-28T10:23:00;14.70;;;6.30;;
57309;SDS011;43153;50.984;18.204;2023-02-28T10:25:36;9.60;;;5.00;;
57309;SDS011;43153;50.984;18.204;2023-02-28T10:28:15;11.70;;;5.90;;
57309;SDS011;43153;50.984;18.204;2023-02-28T10:30:52;12.80;;;5.70;;
57309;SDS011;43153;50.984;18.204;2023-02-28T10:33:23;12.20;;;5.70;;
57309;SDS011;43153;50.984;18.204;2023-02-28T10:35:54;10.80;;;5.80;;
57309;SDS011;43153;50.984;18.204;2023-02-28T10:38:26;10.70;;;4.80;;
57309;SDS011;43153;50.984;18.204;2023-02-28T10:41:04;14.60;;;5.70;;
57309;SDS011;43153;50.984;18.204;2023-02-28T10:43:38;13.00;;;6.00;;
57309;SDS011;43153;50.984;18.204;2023-02-28T10:46:16;12.00;;;5.80;;
57309;SDS011;43153;50.984;18.204;2023-02-28T10:49:01;11.00;;;5.30;;
57309;SDS011;43153;50.984;18.204;2023-02-28T10:51:45;12.80;;;6.40;;
57309;SDS011;43153;50.984;18.204;2023-02-28T10:54:15;11.80;;;5.80;;
57309;SDS011;43153;50.984;18.204;2023-02-28T10:59:52;14.30;;;6.50;;
57309;SDS011;43153;50.984;18.204;2023-02-28T11:02:42;12.00;;;5.50;;
57309;SDS011;43153;50.984;18.204;2023-02-28T11:10:45;16.80;;;6.20;;
57309;SDS011;43153;50.984;18.204;2023-02-28T11:13:33;13.60;;;7.30;;
57309;SDS011;43153;50.984;18.204;2023-02-28T11:16:02;15.00;;;6.70;;
57309;SDS011;43153;50.984;18.204;2023-02-28T11:21:20;13.00;;;6.80;;
57309;SDS011;43153;50.984;18.204;2023-02-28T11:26:43;13.90;;;6.20;;
57309;SDS011;43153;50.984;18.204;2023-02-28T11:29:28;12.40;;;6.60;;
57309;SDS011;43153;50.984;18.204;2023-02-28T11:34:35;12.10;;;5.80;;
57309;SDS011;43153;50.984;18.204;2023-02-28T11:37:03;14.90;;;7.10;;
57309;SDS011;43153;50.984;18.204;2023-02-28T11:39:33;17.40;;;8.10;;
57309;SDS011;43153;50.984;18.204;2023-02-28T11:42:35;14.90;;;6.80;;
57309;SDS011;43153;50.984;18.204;2023-02-28T11:45:11;15.90;;;7.80;;
57309;SDS011;43153;50.984;18.204;2023-02-28T11:47:55;14.40;;;7.30;;
57309;SDS011;43153;50.984;18.204;2023-02-28T12:16:30;12.70;;;6.50;;
57309;SDS011;43153;50.984;18.204;2023-02-28T12:19:19;15.70;;;7.80;;
57309;SDS011;43153;50.984;18.204;2023-02-28T12:21:53;14.10;;;7.40;;
57309;SDS011;43153;50.984;18.204;2023-02-28T12:27:44;14.30;;;7.80;;
57309;SDS011;43153;50.984;18.204;2023-02-28T12:33:08;15.40;;;7.60;;
57309;SDS011;43153;50.984;18.204;2023-02-28T12:35:54;13.70;;;7.20;;
57309;SDS011;43153;50.984;18.204;2023-02-28T12:38:26;15.20;;;6.70;;
57309;SDS011;43153;50.984;18.204;2023-02-28T12:41:02;15.50;;;8.50;;
57309;SDS011;43153;50.984;18.204;2023-02-28T12:44:00;14.30;;;7.50;;
57309;SDS011;43153;50.984;18.204;2023-02-28T12:46:35;14.50;;;7.90;;
57309;SDS011;43153;50.984;18.204;2023-02-28T12:49:10;15.80;;;7.90;;
57309;SDS011;43153;50.984;18.204;2023-02-28T12:51:44;15.40;;;6.80;;
57309;SDS011;43153;50.984;18.204;2023-02-28T12:57:27;12.50;;;7.20;;
57309;SDS011;43153;50.984;18.204;2023-02-28T13:00:03;14.40;;;7.10;;
57309;SDS011;43153;50.984;18.204;2023-02-28T13:11:04;15.60;;;8.10;;
57309;SDS011;43153;50.984;18.204;2023-02-28T13:13:32;14.40;;;7.00;;
57309;SDS011;43153;50.984;18.204;2023-02-28T13:16:03;14.20;;;6.50;;
57309;SDS011;43153;50.984;18.204;2023-02-28T13:18:35;13.40;;;7.10;;
57309;SDS011;43153;50.984;18.204;2023-02-28T13:21:32;12.70;;;7.30;;
57309;SDS011;43153;50.984;18.204;2023-02-28T13:24:54;13.90;;;8.10;;
57309;SDS011;43153;50.984;18.204;2023-02-28T13:27:20;12.90;;;7.50;;
57309;SDS011;43153;50.984;18.204;2023-02-28T13:30:58;13.80;;;8.00;;
57309;SDS011;43153;50.984;18.204;2023-02-28T13:36:29;13.00;;;7.00;;
57309;SDS011;43153;50.984;18.204;2023-02-28T13:39:03;20.10;;;9.40;;
57309;SDS011;43153;50.984;18.204;2023-02-28T13:41:55;17.80;;;8.90;;
57309;SDS011;43153;50.984;18.204;2023-02-28T13:47:24;14.10;;;7.70;;
57309;SDS011;43153;50.984;18.204;2023-02-28T13:50:13;15.10;;;7.60;;
57309;SDS011;43153;50.984;18.204;2023-02-28T13:52:48;17.30;;;8.60;;
57309;SDS011;43153;50.984;18.204;2023-02-28T13:58:38;17.30;;;8.90;;
57309;SDS011;43153;50.984;18.204;2023-02-28T14:07:00;17.20;;;8.60;;
57309;SDS011;43153;50.984;18.204;2023-02-28T14:17:57;17.90;;;8.90;;
57309;SDS011;43153;50.984;18.204;2023-02-28T14:20:26;18.10;;;8.50;;
57309;SDS011;43153;50.984;18.204;2023-02-28T14:28:55;16.40;;;8.50;;
57309;SDS011;43153;50.984;18.204;2023-02-28T14:37:19;17.80;;;8.70;;
57309;SDS011;43153;50.984;18.204;2023-02-28T14:39:50;16.50;;;9.10;;
57309;SDS011;43153;50.984;18.204;2023-02-28T14:45:03;19.00;;;9.00;;
57309;SDS011;43153;50.984;18.204;2023-02-28T14:47:50;15.50;;;8.60;;
57309;SDS011;43153;50.984;18.204;2023-02-28T14:50:23;17.60;;;8.10;;
57309;SDS011;43153;50.984;18.204;2023-02-28T14:52:55;17.30;;;8.90;;
57309;SDS011;43153;50.984;18.204;2023-02-28T14:55:37;18.30;;;9.20;;
57309;SDS011;43153;50.984;18.204;2023-02-28T14:58:05;19.00;;;9.60;;
57309;SDS011;43153;50.984;18.204;2023-02-28T15:00:36;19.70;;;9.20;;
57309;SDS011;43153;50.984;18.204;2023-02-28T15:03:18;18.70;;;10.60;;
57309;SDS011;43153;50.984;18.204;2023-02-28T15:05:55;19.60;;;9.90;;
57309;SDS011;43153;50.984;18.204;2023-02-28T15:08:30;18.70;;;9.30;;
57309;SDS011;43153;50.984;18.204;2023-02-28T15:11:02;19.80;;;10.70;;
57309;SDS011;43153;50.984;18.204;2023-02-28T15:13:45;20.20;;;10.30;;
57309;SDS011;43153;50.984;18.204;2023-02-28T15:16:17;22.00;;;11.50;;
57309;SDS011;43153;50.984;18.204;2023-02-28T15:21:29;22.50;;;12.10;;
57309;SDS011;43153;50.984;18.204;2023-02-28T16:02:31;33.00;;;15.60;;
57309;SDS011;43153;50.984;18.204;2023-02-28T16:07:38;28.20;;;13.90;;
57309;SDS011;43153;50.984;18.204;2023-02-28T16:10:08;25.70;;;12.50;;
57309;SDS011;43153;50.984;18.204;2023-02-28T16:12:47;22.70;;;10.90;;
57309;SDS011;43153;50.984;18.204;2023-02-28T16:15:17;35.70;;;15.50;;
57309;SDS011;43153;50.984;18.204;2023-02-28T16:17:57;31.30;;;13.60;;
57309;SDS011;43153;50.984;18.204;2023-02-28T16:20:28;33.00;;;13.30;;
57309;SDS011;43153;50.984;18.204;2023-02-28T16:22:57;23.60;;;11.50;;
57309;SDS011;43153;50.984;18.204;2023-02-28T16:25:39;29.70;;;13.80;;
57309;SDS011;43153;50.984;18.204;2023-02-28T16:28:15;31.10;;;13.30;;
57309;SDS011;43153;50.984;18.204;2023-02-28T16:30:52;32.40;;;14.50;;
57309;SDS011;43153;50.984;18.204;2023-02-28T16:33:19;36.90;;;14.20;;
57309;SDS011;43153;50.984;18.204;2023-02-28T16:35:48;30.00;;;14.10;;
57309;SDS011;43153;50.984;18.204;2023-02-28T16:38:16;31.10;;;13.50;;
57309;SDS011;43153;50.984;18.204;2023-02-28T16:40:50;28.90;;;11.20;;
57309;SDS011;43153;50.984;18.204;2023-02-28T16:43:22;30.70;;;12.40;;
57309;SDS011;43153;50.984;18.204;2023-02-28T16:45:56;35.10;;;13.60;;
57309;SDS011;43153;50.984;18.204;2023-02-28T16:48:25;32.20;;;12.90;;
57309;SDS011;43153;50.984;18.204;2023-02-28T16:50:54;32.20;;;12.80;;
57309;SDS011;43153;50.984;18.204;2023-02-28T16:53:20;33.50;;;12.10;;
57309;SDS011;43153;50.984;18.204;2023-02-28T16:55:50;27.10;;;12.50;;
57309;SDS011;43153;50.984;18.204;2023-02-28T16:58:19;25.20;;;11.30;;
57309;SDS011;43153;50.984;18.204;2023-02-28T17:00:48;33.00;;;12.30;;
57309;SDS011;43153;50.984;18.204;2023-02-28T17:03:23;25.70;;;12.00;;
57309;SDS011;43153;50.984;18.204;2023-02-28T17:05:54;32.80;;;13.20;;
57309;SDS011;43153;50.984;18.204;2023-02-28T17:08:26;27.00;;;11.90;;
57309;SDS011;43153;50.984;18.204;2023-02-28T17:10:55;27.60;;;12.30;;
57309;SDS011;43153;50.984;18.204;2023-02-28T17:13:21;28.90;;;12.10;;
57309;SDS011;43153;50.984;18.204;2023-02-28T17:15:47;30.40;;;13.70;;
57309;SDS011;43153;50.984;18.204;2023-02-28T17:18:17;26.00;;;10.70;;
57309;SDS011;43153;50.984;18.204;2023-02-28T17:20:49;25.30;;;10.80;;
57309;SDS011;43153;50.984;18.204;2023-02-28T17:23:16;26.80;;;11.60;;
57309;SDS011;43153;50.984;18.204;2023-02-28T17:25:42;29.30;;;12.60;;
57309;SDS011;43153;50.984;18.204;2023-02-28T17:28:19;28.00;;;12.40;;
57309;SDS011;43153;50.984;18.204;2023-02-28T17:30:49;33.30;;;13.40;;
57309;SDS011;43153;50.984;18.204;2023-02-28T17:33:17;39.10;;;14.40;;
57309;SDS011;43153;50.984;18.204;2023-02-28T17:35:44;44.80;;;17.80;;
57309;SDS011;43153;50.984;18.204;2023-02-28T17:38:15;51.00;;;18.40;;
57309;SDS011;43153;50.984;18.204;2023-02-28T17:40:44;51.10;;;22.20;;
57309;SDS011;43153;50.984;18.204;2023-02-28T17:43:11;84.00;;;35.30;;
57309;SDS011;43153;50.984;18.204;2023-02-28T17:45:41;86.80;;;40.80;;
57309;SDS011;43153;50.984;18.204;2023-02-28T17:48:09;84.40;;;34.20;;
57309;SDS011;43153;50.984;18.204;2023-02-28T17:50:37;59.00;;;28.20;;
57309;SDS011;43153;50.984;18.204;2023-02-28T17:53:03;59.20;;;27.20;;
57309;SDS011;43153;50.984;18.204;2023-02-28T17:55:30;60.70;;;26.90;;
57309;SDS011;43153;50.984;18.204;2023-02-28T17:58:00;57.00;;;24.40;;
57309;SDS011;43153;50.984;18.204;2023-02-28T18:00:32;55.80;;;18.80;;
57309;SDS011;43153;50.984;18.204;2023-02-28T18:03:00;57.80;;;24.00;;
57309;SDS011;43153;50.984;18.204;2023-02-28T18:05:34;56.50;;;24.00;;
57309;SDS011;43153;50.984;18.204;2023-02-28T18:08:02;60.30;;;26.80;;
57309;SDS011;43153;50.984;18.204;2023-02-28T18:10:37;52.30;;;25.20;;
57309;SDS011;43153;50.984;18.204;2023-02-28T18:13:09;68.00;;;31.90;;
57309;SDS011;43153;50.984;18.204;2023-02-28T18:15:40;75.00;;;31.20;;
57309;SDS011;43153;50.984;18.204;2023-02-28T18:18:06;60.70;;;27.40;;
57309;SDS011;43153;50.984;18.204;2023-02-28T18:20:35;71.50;;;30.70;;
57309;SDS011;43153;50.984;18.204;2023-02-28T18:23:05;75.60;;;31.40;;
57309;SDS011;43153;50.984;18.204;2023-02-28T18:25:31;70.00;;;29.00;;
57309;SDS011;43153;50.984;18.204;2023-02-28T18:27:58;74.30;;;32.70;;
57309;SDS011;43153;50.984;18.204;2023-02-28T18:30:26;77.60;;;33.90;;
57309;SDS011;43153;50.984;18.204;2023-02-28T18:32:56;67.90;;;25.80;;
57309;SDS011;43153;50.984;18.204;2023-02-28T18:35:23;61.00;;;26.10;;
57309;SDS011;43153;50.984;18.204;2023-02-28T18:38:15;55.70;;;23.70;;
57309;SDS011;43153;50.984;18.204;2023-02-28T18:40:57;58.10;;;24.70;;
57309;SDS011;43153;50.984;18.204;2023-02-28T18:43:28;59.80;;;24.80;;
57309;SDS011;43153;50.984;18.204;2023-02-28T18:45:55;68.00;;;25.60;;
57309;SDS011;43153;50.984;18.204;2023-02-28T18:48:23;53.90;;;23.50;;
57309;SDS011;43153;50.984;18.204;2023-02-28T18:50:55;56.60;;;22.50;;
57309;SDS011;43153;50.984;18.204;2023-02-28T18:53:30;54.90;;;22.20;;
57309;SDS011;43153;50.984;18.204;2023-02-28T18:55:59;55.40;;;22.30;;
57309;SDS011;43153;50.984;18.204;2023-02-28T18:58:25;60.80;;;21.80;;